Time;durP1;ratioP1;P1;durP2;ratioP2;P2;SDS_P1;SDS_P2;PMS_P1;PMS_P2;Temp;Humidity;BMP_temperature;BMP_pressure;BME280_temperature;BME280_humidity;BME280_pressure;Samples;Min_cycle;Max_cycle;Signal;HPM_P1;HPM_P2
2022/06/07 00:02:30;;;;;;;2.40;2.20;;;;;;;20.31;53.51;97072.06;5071345;28;20197;-73
2022/06/07 00:04:57;;;;;;;2.90;2.37;;;;;;;20.23;54.14;97078.81;5069951;28;20197;-71
2022/06/07 00:07:26;;;;;;;2.50;2.10;;;;;;;20.21;54.35;97078.13;5071204;28;20189;-73
2022/06/07 00:09:53;;;;;;;2.60;2.40;;;;;;;20.06;55.00;97078.50;5070156;28;20218;-70
2022/06/07 00:12:21;;;;;;;4.87;2.87;;;;;;;20.27;54.48;97077.59;5070625;28;20185;-72
2022/06/07 00:14:48;;;;;;;3.07;2.40;;;;;;;20.21;54.50;97069.38;5053006;28;20230;-72
2022/06/07 00:17:15;;;;;;;3.80;2.90;;;;;;;20.23;54.91;97075.34;5069844;28;20288;-72
2022/06/07 00:19:43;;;;;;;2.80;2.27;;;;;;;19.90;54.77;97072.84;5053121;28;20196;-72
2022/06/07 00:22:10;;;;;;;3.20;2.67;;;;;;;19.45;56.16;97062.50;5051629;28;20203;-72
2022/06/07 00:24:37;;;;;;;2.10;1.90;;;;;;;19.23;56.65;97066.94;5071144;28;21046;-73
2022/06/07 00:27:05;;;;;;;2.60;2.40;;;;;;;18.93;56.87;97066.75;5069714;28;20710;-74
2022/06/07 00:29:33;;;;;;;3.60;2.30;;;;;;;18.83;57.14;97066.63;5070561;28;20245;-72
2022/06/07 00:32:01;;;;;;;2.50;2.30;;;;;;;18.86;55.88;97076.88;5052687;28;20900;-71
2022/06/07 00:34:28;;;;;;;2.83;2.00;;;;;;;18.79;56.94;97072.25;5069492;28;20201;-71
2022/06/07 00:36:55;;;;;;;2.47;2.20;;;;;;;19.03;56.70;97086.91;5070808;28;20189;-70
2022/06/07 00:39:22;;;;;;;2.23;1.90;;;;;;;18.88;57.31;97079.38;5051213;28;20205;-70
2022/06/07 00:41:49;;;;;;;4.70;2.43;;;;;;;18.95;57.25;97077.94;5052697;28;20192;-69
2022/06/07 00:44:25;;;;;;;2.33;2.13;;;;;;;18.83;56.48;97085.00;5069214;28;20252;-70
2022/06/07 00:47:03;;;;;;;2.23;2.03;;;;;;;19.00;56.96;97087.13;5035505;28;20200;-71
2022/06/07 00:49:38;;;;;;;3.00;2.50;;;;;;;19.07;57.31;97083.06;5070391;28;20257;-71
2022/06/07 00:52:05;;;;;;;3.47;1.93;;;;;;;19.02;56.27;97084.41;5051053;28;20831;-72
2022/06/07 00:54:33;;;;;;;2.90;2.20;;;;;;;18.83;57.38;97085.00;5070522;28;20678;-73
2022/06/07 00:57:17;;;;;;;3.50;2.40;;;;;;;18.97;57.10;97086.53;5034618;28;20690;-73
2022/06/07 00:59:44;;;;;;;2.87;2.27;;;;;;;19.08;57.70;97081.28;5051996;28;20193;-72
2022/06/07 01:02:12;;;;;;;3.50;2.83;;;;;;;19.17;58.42;97084.00;5052047;28;20266;-73
2022/06/07 01:04:40;;;;;;;5.57;3.07;;;;;;;19.38;58.21;97084.13;5068994;28;20224;-72
2022/06/07 01:12:47;;;;;;;6.13;3.40;;;;;;;19.68;58.58;97084.28;5051555;28;20193;-72
2022/06/07 01:15:18;;;;;;;6.07;3.27;;;;;;;19.75;59.00;97089.88;5051920;28;20233;-72
2022/06/07 01:17:45;;;;;;;3.23;2.93;;;;;;;19.68;58.39;97073.75;5050688;28;20651;-73
2022/06/07 01:20:12;;;;;;;3.33;2.83;;;;;;;19.64;58.83;97079.41;5051882;28;20192;-71
2022/06/07 01:22:40;;;;;;;2.90;2.70;;;;;;;19.81;58.04;97078.84;5033897;28;20773;-72
2022/06/07 01:25:08;;;;;;;5.13;2.77;;;;;;;19.45;57.70;97057.25;5070249;28;20192;-72
2022/06/07 01:27:35;;;;;;;3.77;2.57;;;;;;;19.42;58.36;97070.63;5069454;28;20273;-72
2022/06/07 01:30:05;;;;;;;3.67;2.60;;;;;;;19.38;58.36;97084.97;5053089;28;20196;-72
2022/06/07 01:32:33;;;;;;;2.87;2.30;;;;;;;19.15;58.65;97088.56;5037047;28;20204;-72
2022/06/07 01:35:00;;;;;;;2.90;2.43;;;;;;;19.28;58.44;97084.00;5053694;28;20769;-72
2022/06/07 01:37:29;;;;;;;3.17;2.50;;;;;;;19.34;58.22;97080.09;5052886;28;20191;-71
2022/06/07 01:42:41;;;;;;;2.60;2.27;;;;;;;19.58;56.80;97080.72;5069845;28;20214;-71
2022/06/07 01:45:09;;;;;;;3.93;2.37;;;;;;;19.40;56.00;97069.94;5051413;28;20189;-72
2022/06/07 01:47:38;;;;;;;2.57;2.20;;;;;;;19.32;55.73;97063.56;5017908;28;20216;-72
2022/06/07 01:50:08;;;;;;;2.10;1.90;;;;;;;19.54;56.03;97076.69;5051672;28;20192;-72
2022/06/07 01:52:36;;;;;;;3.20;2.00;;;;;;;19.56;55.55;97076.56;5050072;28;20188;-72
2022/06/07 01:55:10;;;;;;;2.27;2.07;;;;;;;19.59;55.39;97068.44;5051565;28;20681;-71
2022/06/07 01:57:46;;;;;;;3.63;2.23;;;;;;;19.53;55.03;97063.69;5050273;28;20191;-71
2022/06/07 02:00:16;;;;;;;2.50;2.07;;;;;;;19.49;55.87;97066.53;5050900;28;20219;-71
2022/06/07 02:02:48;;;;;;;3.30;2.40;;;;;;;19.52;55.38;97065.47;5069065;28;20192;-70
2022/06/07 02:05:17;;;;;;;2.23;2.07;;;;;;;19.68;54.60;97079.00;5049930;28;20683;-71
2022/06/07 02:07:51;;;;;;;2.47;2.27;;;;;;;19.69;54.64;97075.44;5051396;28;20188;-70
2022/06/07 02:10:24;;;;;;;2.43;2.23;;;;;;;19.72;54.60;97079.63;5049961;28;20238;-71
2022/06/07 02:12:53;;;;;;;2.47;2.27;;;;;;;19.61;55.47;97077.88;5050992;28;20250;-70
2022/06/07 02:15:20;;;;;;;2.57;2.20;;;;;;;19.47;56.37;97065.81;5050581;28;20264;-70
2022/06/07 02:17:51;;;;;;;2.50;2.30;;;;;;;19.42;56.17;97072.41;5049934;28;20195;-71
2022/06/07 02:20:29;;;;;;;2.93;2.57;;;;;;;19.46;56.63;97069.44;5050986;28;20192;-71
2022/06/07 02:22:55;;;;;;;5.97;3.27;;;;;;;19.39;57.21;97062.19;5049366;28;20276;-71
2022/06/07 02:25:22;;;;;;;7.87;2.87;;;;;;;19.49;56.77;97071.78;5050854;28;20255;-71
2022/06/07 02:27:51;;;;;;;6.20;2.80;;;;;;;19.60;57.10;97057.78;5067530;28;20536;-72
2022/06/07 02:30:18;;;;;;;3.20;2.67;;;;;;;19.60;57.67;97075.38;5068198;28;20705;-72
2022/06/07 02:32:46;;;;;;;3.90;3.00;;;;;;;19.56;57.61;97079.22;5050328;28;20196;-73
2022/06/07 02:35:13;;;;;;;2.90;2.60;;;;;;;19.57;57.57;97084.31;5049184;28;20216;-72
2022/06/07 02:37:40;;;;;;;4.80;2.87;;;;;;;19.56;57.66;97084.47;5068482;28;20710;-71
2022/06/07 02:40:08;;;;;;;3.20;2.67;;;;;;;19.55;56.84;97088.03;5066903;28;20193;-72
2022/06/07 02:42:35;;;;;;;3.57;2.63;;;;;;;19.32;57.08;97090.69;5050341;28;20621;-72
2022/06/07 02:45:03;;;;;;;4.20;2.80;;;;;;;19.17;57.79;97097.16;5067325;28;20530;-71
2022/06/07 02:47:30;;;;;;;2.57;2.37;;;;;;;19.15;57.92;97096.44;5066664;28;20200;-72
2022/06/07 02:50:04;;;;;;;3.10;2.30;;;;;;;19.21;57.92;97092.47;5050137;28;20203;-72
2022/06/07 02:52:35;;;;;;;4.97;2.60;;;;;;;19.29;57.18;97090.06;5048998;28;20189;-71
2022/06/07 02:55:09;;;;;;;2.80;2.40;;;;;;;19.38;57.01;97094.63;5050055;28;20184;-73
2022/06/07 02:57:37;;;;;;;4.40;2.80;;;;;;;19.52;57.37;97094.34;5048599;28;20188;-71
2022/06/07 03:00:11;;;;;;;3.80;2.37;;;;;;;19.54;57.06;97095.06;5050028;28;20717;-71
2022/06/07 03:02:39;;;;;;;6.90;3.37;;;;;;;19.48;57.29;97091.16;5049392;28;20195;-70
2022/06/07 03:05:10;;;;;;;3.60;2.60;;;;;;;19.54;56.85;97087.19;5049250;28;20191;-71
2022/06/07 03:07:42;;;;;;;5.73;3.23;;;;;;;19.29;57.37;97098.78;5049785;28;20766;-71
2022/06/07 03:10:11;;;;;;;4.43;2.80;;;;;;;18.78;59.48;97097.63;5066287;28;20530;-72
2022/06/07 03:12:38;;;;;;;4.27;2.70;;;;;;;18.48;60.34;97094.75;5033093;28;20258;-72
2022/06/07 03:15:10;;;;;;;3.50;2.60;;;;;;;18.25;61.54;97099.09;5048530;28;20259;-72
2022/06/07 03:17:38;;;;;;;3.07;2.77;;;;;;;18.09;61.72;97095.94;5067585;28;20682;-71
2022/06/07 03:20:06;;;;;;;4.53;2.80;;;;;;;18.06;62.63;97108.44;5049417;28;20212;-72
2022/06/07 03:22:36;;;;;;;3.40;3.07;;;;;;;17.72;62.86;97095.19;5048714;28;20183;-71
2022/06/07 03:25:07;;;;;;;4.37;3.00;;;;;;;18.15;62.10;97098.13;5033080;28;20197;-72
2022/06/07 03:27:38;;;;;;;3.83;2.90;;;;;;;18.56;60.24;97097.63;5048265;28;20197;-72
2022/06/07 03:30:10;;;;;;;4.20;3.00;;;;;;;18.79;59.34;97099.31;5049658;28;20192;-72
2022/06/07 03:32:39;;;;;;;2.73;2.50;;;;;;;18.17;60.50;97101.47;5048239;28;20201;-72
2022/06/07 03:35:09;;;;;;;4.63;2.83;;;;;;;18.28;61.24;97105.91;5049127;28;20194;-72
2022/06/07 03:37:38;;;;;;;2.80;2.47;;;;;;;18.43;60.58;97107.34;5032956;28;20196;-72
2022/06/07 03:40:09;;;;;;;4.47;2.47;;;;;;;18.70;59.94;97105.25;5031622;28;20197;-72
2022/06/07 03:42:37;;;;;;;3.13;2.70;;;;;;;18.60;59.92;97104.31;5049466;28;20191;-72
2022/06/07 03:45:06;;;;;;;2.63;2.43;;;;;;;18.75;60.33;97110.16;5048163;28;20242;-72
2022/06/07 03:47:37;;;;;;;5.97;3.50;;;;;;;19.56;57.67;97106.28;5032830;28;20211;-73
2022/06/07 03:50:05;;;;;;;5.50;3.00;;;;;;;20.27;55.16;97103.06;5048487;28;20258;-72
2022/06/07 03:52:32;;;;;;;3.17;2.87;;;;;;;20.42;55.11;97112.31;5048750;28;20192;-72
2022/06/07 03:54:59;;;;;;;3.47;2.70;;;;;;;20.75;53.95;97109.44;5049356;28;20203;-72
2022/06/07 03:57:30;;;;;;;2.43;2.23;;;;;;;21.16;53.16;97118.25;5032211;28;20220;-72
2022/06/07 04:00:01;;;;;;;2.37;2.20;;;;;;;21.50;51.52;97122.22;5033380;28;20518;-72
2022/06/07 04:02:29;;;;;;;5.00;3.07;;;;;;;21.70;51.13;97106.31;5065720;28;20189;-72
2022/06/07 04:04:56;;;;;;;5.67;3.07;;;;;;;22.12;50.71;97103.44;5066799;28;20260;-72
2022/06/07 04:10:12;;;;;;;2.93;2.47;;;;;;;22.43;49.11;97097.88;5047781;28;20184;-71
2022/06/07 04:12:45;;;;;;;3.03;2.37;;;;;;;22.68;48.37;97109.66;5048455;28;20275;-72
2022/06/07 04:15:13;;;;;;;3.37;2.70;;;;;;;22.64;49.11;97100.38;5065068;28;20214;-72
2022/06/07 04:17:41;;;;;;;3.70;2.83;;;;;;;22.94;48.30;97099.28;5048760;28;20823;-73
2022/06/07 04:20:21;;;;;;;6.13;2.70;;;;;;;23.20;47.73;97092.38;5048053;28;20191;-72
2022/06/07 04:22:49;;;;;;;3.97;2.50;;;;;;;22.88;49.22;97102.50;5015136;28;20209;-72
2022/06/07 04:25:17;;;;;;;5.70;2.60;;;;;;;22.99;47.90;97104.97;5045458;28;20279;-71
2022/06/07 04:27:45;;;;;;;11.13;8.03;;;;;;;23.12;48.36;97092.28;5046670;28;20220;-72
2022/06/07 04:30:14;;;;;;;3.60;2.50;;;;;;;22.97;48.32;97091.94;5028886;28;20201;-72
2022/06/07 04:32:47;;;;;;;5.23;2.83;;;;;;;23.29;48.06;97091.47;5027418;28;20199;-71
2022/06/07 04:35:20;;;;;;;6.67;3.33;;;;;;;23.36;47.54;97077.59;5028409;28;20198;-73
2022/06/07 04:37:53;;;;;;;3.60;2.57;;;;;;;23.07;47.41;97087.44;5028508;28;20582;-72
2022/06/07 04:40:22;;;;;;;2.90;2.53;;;;;;;23.21;47.94;97083.47;5011875;28;20191;-73
2022/06/07 04:42:49;;;;;;;4.60;2.93;;;;;;;23.46;47.74;97077.50;5012860;28;20700;-73
2022/06/07 04:45:21;;;;;;;8.00;4.00;;;;;;;23.80;48.11;97075.06;5027845;28;20191;-73
2022/06/07 04:48:12;;;;;;;4.83;3.03;;;;;;;24.00;48.88;97082.69;5033068;28;20607;-73
2022/06/07 04:51:11;;;;;;;4.23;2.87;;;;;;;23.71;48.11;97082.09;5049825;28;20204;-73
2022/06/07 04:53:51;;;;;;;4.23;2.30;;;;;;;23.53;48.54;97077.75;5031066;28;20249;-71
2022/06/07 04:56:23;;;;;;;4.83;3.40;;;;;;;23.83;48.73;97087.97;5032167;28;20215;-71
2022/06/07 04:58:51;;;;;;;7.03;2.93;;;;;;;23.87;48.68;97094.63;5031098;28;20202;-72
2022/06/07 05:01:26;;;;;;;2.60;2.40;;;;;;;23.32;49.40;97096.53;5049850;28;20658;-72
2022/06/07 05:03:57;;;;;;;2.47;2.27;;;;;;;23.41;49.35;97104.38;5031881;28;20187;-72
2022/06/07 05:06:28;;;;;;;4.67;2.33;;;;;;;22.88;50.59;97094.56;5030894;28;20252;-71
2022/06/07 05:09:11;;;;;;;6.23;2.80;;;;;;;23.14;50.89;97093.78;5032147;28;20232;-72
2022/06/07 05:11:38;;;;;;;4.53;2.83;;;;;;;23.11;50.00;97096.72;5030699;28;20196;-72
2022/06/07 05:14:07;;;;;;;4.50;2.37;;;;;;;22.73;50.61;97098.69;5031677;28;20708;-72
2022/06/07 05:16:44;;;;;;;4.87;2.70;;;;;;;22.61;50.83;97096.19;5031176;28;20547;-71
2022/06/07 05:19:18;;;;;;;7.50;2.63;;;;;;;23.30;49.02;97091.34;5030328;28;20191;-72
2022/06/07 05:21:48;;;;;;;3.80;2.30;;;;;;;23.49;47.04;97087.81;5031596;28;20598;-72
2022/06/07 05:24:16;;;;;;;3.17;2.60;;;;;;;23.07;48.42;97103.28;5030340;28;20193;-72
2022/06/07 05:26:48;;;;;;;4.37;2.83;;;;;;;22.86;49.84;97104.47;5031511;28;20252;-72
2022/06/07 05:29:55;;;;;;;6.20;3.03;;;;;;;23.21;49.08;97096.66;5030889;28;20574;-73
2022/06/07 05:32:57;;;;;;;4.60;2.60;;;;;;;23.76;48.03;97095.69;5012127;28;20712;-74
2022/06/07 05:35:36;;;;;;;2.87;2.50;;;;;;;24.03;46.81;97093.00;5014420;28;20263;-71
2022/06/07 05:38:12;;;;;;;3.90;2.70;;;;;;;23.87;47.00;97091.97;5031091;28;20581;-71
2022/06/07 05:40:42;;;;;;;6.83;3.10;;;;;;;24.15;46.61;97097.06;5013989;28;20586;-71
2022/06/07 05:43:13;;;;;;;6.63;2.90;;;;;;;24.18;46.13;97098.59;5014520;28;20210;-71
2022/06/07 05:45:50;;;;;;;6.23;2.93;;;;;;;24.54;45.79;97091.44;5013242;28;20200;-72
2022/06/07 05:48:23;;;;;;;4.90;3.13;;;;;;;24.68;45.54;97099.66;5014310;28;20276;-72
2022/06/07 05:50:52;;;;;;;3.47;2.20;;;;;;;24.57;45.17;97099.91;5013258;28;20299;-71
2022/06/07 05:53:24;;;;;;;4.80;2.50;;;;;;;24.44;45.87;97107.41;5030265;28;20188;-73
2022/06/07 05:55:52;;;;;;;3.07;2.40;;;;;;;24.41;45.31;97102.44;5014622;28;20219;-72
2022/06/07 05:58:20;;;;;;;4.60;2.37;;;;;;;24.38;44.60;97108.00;5047511;28;20195;-72
2022/06/07 06:00:48;;;;;;;4.47;2.60;;;;;;;24.30;45.14;97093.91;5031052;28;20199;-73
2022/06/07 06:03:21;;;;;;;6.10;2.93;;;;;;;24.73;44.90;97101.84;5029816;28;20201;-73
2022/06/07 06:05:49;;;;;;;3.70;2.50;;;;;;;24.86;44.40;97112.84;5014278;28;20214;-72
2022/06/07 06:11:13;;;;;;;3.23;2.57;;;;;;;24.88;44.16;97106.44;5029504;28;20195;-72
2022/06/07 06:13:46;;;;;;;2.63;2.20;;;;;;;24.38;44.28;97092.13;5029953;28;20195;-73
2022/06/07 06:16:18;;;;;;;4.47;2.70;;;;;;;24.40;44.71;97102.59;5012735;28;20715;-72
2022/06/07 06:18:53;;;;;;;3.13;2.20;;;;;;;24.10;44.47;97112.59;5047878;28;20190;-72
2022/06/07 06:21:25;;;;;;;3.67;2.63;;;;;;;23.88;45.45;97091.84;5030071;28;20244;-72
2022/06/07 06:23:52;;;;;;;7.50;4.37;;;;;;;24.10;44.90;97104.66;5029336;28;20204;-72
2022/06/07 06:26:21;;;;;;;3.47;3.17;;;;;;;24.23;45.98;97093.69;5014007;28;20275;-72
2022/06/07 06:28:52;;;;;;;5.43;3.10;;;;;;;24.34;44.63;97084.66;5012629;28;20278;-73
2022/06/07 06:31:20;;;;;;;4.27;3.87;;;;;;;24.46;44.66;97083.44;5030295;28;20190;-72
2022/06/07 06:33:49;;;;;;;3.83;3.47;;;;;;;24.73;44.81;97083.28;5046774;28;20179;-73
2022/06/07 06:36:23;;;;;;;6.93;3.60;;;;;;;24.96;44.24;97082.63;5029819;28;20233;-72
2022/06/07 06:38:51;;;;;;;4.43;2.70;;;;;;;25.20;43.26;97081.91;5029651;28;20187;-74
2022/06/07 06:41:29;;;;;;;6.90;3.00;;;;;;;25.56;42.65;97085.19;5028854;28;20263;-73
2022/06/07 06:44:03;;;;;;;4.77;2.80;;;;;;;25.48;42.28;97085.19;5046846;28;20275;-73
2022/06/07 06:46:41;;;;;;;3.30;2.57;;;;;;;25.78;42.14;97093.38;5011701;28;20842;-73
2022/06/07 06:49:12;;;;;;;3.73;2.70;;;;;;;25.59;41.05;97085.72;5029217;28;20197;-72
2022/06/07 06:51:42;;;;;;;4.27;2.57;;;;;;;25.08;42.44;97085.81;5029173;28;20189;-72
2022/06/07 06:54:13;;;;;;;3.93;3.10;;;;;;;25.02;42.00;97081.13;5011501;28;20498;-72
2022/06/07 06:56:58;;;;;;;6.20;2.60;;;;;;;25.50;41.58;97073.44;5047185;28;21018;-72
2022/06/07 06:59:28;;;;;;;12.20;5.87;;;;;;;25.26;41.54;97080.44;5027474;28;20196;-72
2022/06/07 07:02:03;;;;;;;11.73;6.53;;;;;;;25.30;41.55;97081.78;5046757;28;20251;-73
2022/06/07 07:04:46;;;;;;;5.17;3.47;;;;;;;25.50;42.78;97078.72;5046804;28;20285;-72
2022/06/07 07:07:13;;;;;;;6.23;2.93;;;;;;;25.62;42.06;97077.44;5046354;28;20963;-71
2022/06/07 07:09:40;;;;;;;3.50;2.80;;;;;;;25.46;41.26;97045.56;5027987;28;20297;-72
2022/06/07 07:12:10;;;;;;;5.93;3.90;;;;;;;25.99;40.87;97071.69;5010362;28;20258;-72
2022/06/07 07:14:43;;;;;;;5.03;3.03;;;;;;;26.35;40.36;97074.88;5028789;28;20216;-73
2022/06/07 07:17:18;;;;;;;5.00;3.00;;;;;;;26.04;41.62;97074.69;5045546;28;20746;-71
2022/06/07 07:19:49;;;;;;;3.17;2.50;;;;;;;25.91;40.82;97078.81;5011891;28;20608;-73
2022/06/07 07:22:22;;;;;;;3.87;3.50;;;;;;;25.80;41.84;97078.13;5028472;28;20285;-71
2022/06/07 07:24:51;;;;;;;5.97;2.83;;;;;;;25.51;42.24;97064.47;5027619;28;20200;-72
2022/06/07 07:27:20;;;;;;;6.33;2.97;;;;;;;25.59;41.69;97069.81;5046992;28;20214;-72
2022/06/07 07:29:48;;;;;;;9.03;3.73;;;;;;;25.62;41.33;97068.63;5027493;28;20197;-72
2022/06/07 07:32:21;;;;;;;5.60;2.93;;;;;;;25.68;41.50;97063.50;5012909;28;20619;-72
2022/06/07 07:34:53;;;;;;;3.77;3.10;;;;;;;25.55;42.16;97063.19;5011589;28;20247;-72
2022/06/07 07:37:20;;;;;;;4.63;3.50;;;;;;;25.36;42.28;97067.88;5028125;28;20282;-72
2022/06/07 07:39:59;;;;;;;4.97;3.37;;;;;;;25.45;41.92;97051.03;5028731;28;20193;-72
2022/06/07 07:42:32;;;;;;;5.90;4.30;;;;;;;25.57;42.18;97058.53;5045321;28;20731;-74
2022/06/07 07:45:09;;;;;;;6.13;3.37;;;;;;;25.72;42.66;97058.72;4997468;28;20194;-74
2022/06/07 07:47:38;;;;;;;6.43;3.30;;;;;;;25.43;41.82;97053.03;5027290;28;20192;-74
2022/06/07 07:50:05;;;;;;;6.67;3.10;;;;;;;25.64;42.01;97054.22;5028260;28;20230;-73
2022/06/07 07:52:33;;;;;;;4.50;2.83;;;;;;;25.37;40.56;97051.00;5028602;28;20192;-72
2022/06/07 07:55:07;;;;;;;3.83;2.80;;;;;;;25.29;40.82;97041.16;4995480;28;20285;-73
2022/06/07 07:57:36;;;;;;;4.50;3.07;;;;;;;24.93;43.01;97053.81;5028572;28;20303;-73
2022/06/07 08:00:06;;;;;;;4.37;3.50;;;;;;;25.33;42.95;97046.97;5026930;28;20200;-73
2022/06/07 08:02:39;;;;;;;22.80;12.97;;;;;;;25.46;42.67;97042.06;5046072;28;20185;-73
2022/06/07 08:05:20;;;;;;;4.73;2.83;;;;;;;24.77;44.47;97045.75;5028012;28;20871;-73
2022/06/07 08:07:48;;;;;;;4.20;2.87;;;;;;;25.09;43.64;97039.78;5010577;28;20197;-73
2022/06/07 08:10:24;;;;;;;6.00;3.90;;;;;;;25.21;42.75;97027.88;5046083;28;20288;-73
2022/06/07 08:12:56;;;;;;;5.27;2.87;;;;;;;25.24;42.41;97026.75;5026977;28;20197;-72
2022/06/07 08:15:23;;;;;;;5.27;2.83;;;;;;;25.15;42.09;97033.84;5044658;28;20192;-72
2022/06/07 08:17:52;;;;;;;8.43;3.73;;;;;;;25.07;42.61;97036.44;5044805;28;20220;-72
2022/06/07 08:20:21;;;;;;;9.50;5.97;;;;;;;25.42;42.89;97040.75;5028533;28;20186;-73
2022/06/07 08:22:49;;;;;;;4.97;2.90;;;;;;;25.55;41.45;97047.25;5049682;28;20200;-73
2022/06/07 08:25:19;;;;;;;4.50;2.93;;;;;;;25.63;41.03;97023.41;5030936;28;21050;-73
2022/06/07 08:27:46;;;;;;;2.23;2.03;;;;;;;25.25;39.23;97034.53;5049720;28;20704;-73
2022/06/07 08:30:14;;;;;;;7.63;5.27;;;;;;;25.14;39.46;97010.97;5030510;28;20197;-73
2022/06/07 08:32:43;;;;;;;4.17;3.20;;;;;;;24.83;42.48;97036.34;5050576;28;20211;-71
2022/06/07 08:38:00;;;;;;;5.40;3.70;;;;;;;24.66;43.12;97032.75;5049056;28;20750;-72
2022/06/07 08:40:40;;;;;;;3.50;2.93;;;;;;;25.13;42.40;97016.41;5032037;28;20193;-72
2022/06/07 08:43:25;;;;;;;2.80;2.60;;;;;;;25.59;39.82;97037.16;5030480;28;20693;-75
2022/06/07 08:45:57;;;;;;;3.77;3.27;;;;;;;25.56;40.52;97038.28;5049535;28;20192;-71
2022/06/07 08:48:28;;;;;;;3.77;3.10;;;;;;;25.38;42.43;97013.69;5030440;28;20201;-72
2022/06/07 08:51:02;;;;;;;9.80;5.07;;;;;;;25.53;42.54;97028.00;5031395;28;20204;-72
2022/06/07 08:53:44;;;;;;;5.30;3.60;;;;;;;25.54;42.14;97019.06;5049435;28;20197;-72
2022/06/07 08:56:20;;;;;;;5.20;2.50;;;;;;;25.45;39.50;97020.03;5047917;28;20695;-72
2022/06/07 08:58:51;;;;;;;4.77;2.67;;;;;;;25.10;39.81;97014.09;5031608;28;20220;-72
2022/06/07 09:01:27;;;;;;;6.60;2.87;;;;;;;24.22;43.31;97018.72;5030259;28;20207;-72
2022/06/07 09:04:06;;;;;;;2.73;2.40;;;;;;;24.22;42.61;97017.91;5048992;28;20214;-72
2022/06/07 09:06:40;;;;;;;3.27;1.87;;;;;;;23.86;42.69;97013.63;5049436;28;20206;-72
2022/06/07 09:09:10;;;;;;;2.17;1.97;;;;;;;23.67;43.33;96995.25;5030005;28;20215;-73
2022/06/07 09:14:32;;;;;;;1.80;1.70;;;;;;;23.99;42.94;97004.28;5030855;28;20260;-73
2022/06/07 09:17:03;;;;;;;2.23;2.03;;;;;;;24.10;42.75;97006.75;5048731;28;20223;-71
2022/06/07 09:19:32;;;;;;;5.07;4.13;;;;;;;24.05;42.39;97006.34;5031461;28;20872;-73
2022/06/07 09:22:07;;;;;;;4.07;2.43;;;;;;;24.45;42.70;97007.63;5048165;28;20190;-73
2022/06/07 09:24:48;;;;;;;2.47;2.27;;;;;;;24.47;41.36;97010.94;5049383;28;20203;-73
2022/06/07 09:27:23;;;;;;;2.47;2.27;;;;;;;24.65;41.75;96998.44;5014651;28;20194;-73
2022/06/07 09:30:06;;;;;;;3.20;2.40;;;;;;;24.91;40.85;97004.59;5049419;28;20237;-74
2022/06/07 09:32:36;;;;;;;3.73;2.13;;;;;;;24.58;41.97;97002.75;5049531;28;20198;-73
2022/06/07 09:35:11;;;;;;;14.60;7.07;;;;;;;24.85;42.40;96997.28;5030602;28;20259;-72
2022/06/07 09:37:47;;;;;;;9.60;6.27;;;;;;;24.94;41.72;97001.59;5030218;28;20318;-72
2022/06/07 09:40:28;;;;;;;3.67;2.10;;;;;;;24.75;41.12;96996.56;5048040;28;20198;-72
2022/06/07 09:43:11;;;;;;;2.43;2.07;;;;;;;24.62;42.03;96996.97;5030681;28;20200;-73
2022/06/07 09:45:51;;;;;;;3.43;2.30;;;;;;;24.72;41.81;96984.44;5049760;28;20195;-73
2022/06/07 09:48:30;;;;;;;2.53;2.17;;;;;;;24.38;41.43;97003.94;5048292;28;20188;-73
2022/06/07 09:51:01;;;;;;;2.47;2.27;;;;;;;23.73;43.13;96982.25;5032662;28;20191;-76
2022/06/07 09:53:38;;;;;;;3.40;2.50;;;;;;;23.72;42.91;96982.41;5031971;28;20199;-72
2022/06/07 09:56:28;;;;;;;9.17;4.90;;;;;;;23.79;42.15;97001.97;5049539;28;20251;-72
2022/06/07 09:59:26;;;;;;;4.13;2.40;;;;;;;23.82;42.08;96993.75;5033559;28;20229;-72
2022/06/07 10:01:56;;;;;;;6.53;4.07;;;;;;;23.88;43.06;96982.56;5035315;28;20258;-73
2022/06/07 10:04:28;;;;;;;8.97;5.53;;;;;;;24.06;42.56;96989.50;5060619;28;20268;-73
2022/06/07 10:07:09;;;;;;;5.40;3.77;;;;;;;23.92;42.27;96990.03;5045001;28;20271;-72
2022/06/07 10:10:10;;;;;;;2.47;2.03;;;;;;;24.04;42.20;96980.91;5052964;28;20274;-72
2022/06/07 10:12:40;;;;;;;4.20;2.97;;;;;;;24.21;42.01;96976.53;5032232;28;20183;-72
2022/06/07 10:15:27;;;;;;;2.30;2.10;;;;;;;24.30;42.13;96972.94;5031849;28;20278;-72
2022/06/07 10:17:54;;;;;;;5.83;2.80;;;;;;;24.18;42.96;96971.53;5048299;28;20226;-71
2022/06/07 10:20:34;;;;;;;3.40;2.60;;;;;;;24.16;42.89;96970.88;5049674;28;20191;-72
2022/06/07 10:23:12;;;;;;;4.63;2.10;;;;;;;24.02;41.68;96969.59;5047336;28;20241;-71
2022/06/07 10:25:57;;;;;;;2.77;1.83;;;;;;;24.06;42.59;96962.22;5048474;28;20215;-72
2022/06/07 10:28:38;;;;;;;4.80;2.40;;;;;;;24.10;42.77;96964.41;5048937;28;20693;-73
2022/06/07 10:31:23;;;;;;;4.13;1.97;;;;;;;24.11;42.30;96954.66;5047199;28;20666;-73
2022/06/07 10:33:58;;;;;;;3.03;2.03;;;;;;;24.31;42.50;96953.44;5048464;28;20593;-73
2022/06/07 10:37:03;;;;;;;2.13;1.97;;;;;;;24.19;41.43;96960.78;5047191;28;20297;-73
2022/06/07 10:40:14;;;;;;;1.97;1.83;;;;;;;24.12;41.01;96938.59;5029211;28;20198;-71
2022/06/07 10:42:49;;;;;;;5.23;2.30;;;;;;;24.47;41.03;96942.94;4966341;28;20204;-73
2022/06/07 10:45:20;;;;;;;2.57;2.37;;;;;;;24.72;41.13;96941.22;4965751;28;20609;-73
2022/06/07 10:48:19;;;;;;;6.17;3.07;;;;;;;25.11;40.22;96915.88;5014812;28;20667;-73
2022/06/07 10:54:18;;;;;;;3.90;2.40;;;;;;;26.20;38.67;96915.41;5047355;28;20186;-74
2022/06/07 10:56:52;;;;;;;3.03;2.63;;;;;;;26.55;38.30;96904.34;5046650;28;20189;-73
2022/06/07 10:59:26;;;;;;;5.83;2.27;;;;;;;26.71;37.20;96906.09;5030012;28;20307;-73
2022/06/07 11:02:02;;;;;;;2.67;1.90;;;;;;;26.25;37.48;96913.09;5028121;28;20286;-73
2022/06/07 11:10:42;;;;;;;4.17;2.20;;;;;;;26.55;38.14;96887.56;4985198;28;20209;-73
2022/06/07 11:13:25;;;;;;;2.90;2.20;;;;;;;26.30;37.88;96886.00;5028787;28;20205;-73
2022/06/07 11:16:03;;;;;;;4.63;2.87;;;;;;;26.31;38.13;96893.81;5047207;28;20193;-72
2022/06/07 11:18:31;;;;;;;4.50;2.37;;;;;;;25.78;39.14;96886.41;5046040;28;20267;-73
2022/06/07 11:21:01;;;;;;;2.03;1.87;;;;;;;25.66;38.78;96889.56;5029347;28;20291;-73
2022/06/07 11:23:31;;;;;;;1.80;1.70;;;;;;;25.64;38.73;96884.44;5028211;28;20189;-73
2022/06/07 11:26:04;;;;;;;3.50;2.00;;;;;;;25.62;38.85;96882.94;5013510;28;20316;-73
2022/06/07 11:28:41;;;;;;;4.67;2.40;;;;;;;25.38;38.70;96882.91;5012769;28;20660;-72
2022/06/07 11:31:23;;;;;;;2.73;1.97;;;;;;;25.12;40.66;96898.97;5046407;28;20196;-73
2022/06/07 11:33:50;;;;;;;3.33;1.90;;;;;;;25.15;40.31;96888.03;5046883;28;20650;-73
2022/06/07 11:36:20;;;;;;;2.93;2.23;;;;;;;25.62;39.01;96881.13;5045541;28;20194;-73
2022/06/07 11:41:38;;;;;;;2.37;1.97;;;;;;;25.59;37.73;96870.03;5028324;28;20197;-72
2022/06/07 11:44:08;;;;;;;3.47;2.53;;;;;;;25.77;38.95;96860.88;5028154;28;20200;-75
2022/06/07 11:46:35;;;;;;;1.83;1.73;;;;;;;25.75;39.24;96862.88;5029044;28;20186;-73
2022/06/07 11:49:29;;;;;;;2.60;2.10;;;;;;;25.79;38.94;96861.56;5045585;28;20188;-73
2022/06/07 11:52:08;;;;;;;1.90;1.70;;;;;;;25.45;39.19;96850.28;5046857;28;20288;-73
2022/06/07 11:54:44;;;;;;;2.27;2.07;;;;;;;25.18;39.12;96852.44;5047239;28;20193;-73
2022/06/07 11:57:37;;;;;;;2.20;2.00;;;;;;;24.76;39.79;96857.81;5017733;28;20224;-73
2022/06/07 12:00:16;;;;;;;4.83;3.10;;;;;;;24.82;40.09;96857.16;5051383;28;20188;-72
2022/06/07 12:03:00;;;;;;;2.80;2.20;;;;;;;25.01;39.17;96851.59;5049854;28;20188;-73
2022/06/07 12:05:31;;;;;;;20.90;10.70;;;;;;;24.98;39.17;96843.94;5032136;28;20189;-73
2022/06/07 12:08:39;;;;;;;8.50;5.33;;;;;;;25.00;39.47;96849.91;5050898;28;20195;-71
2022/06/07 12:11:42;;;;;;;2.93;1.90;;;;;;;24.92;39.52;96847.25;5039476;28;20195;-71
2022/06/07 12:14:05;;;;;;;3.10;2.00;;;;;;;25.00;41.08;96844.59;5046905;28;20584;-72
2022/06/07 12:16:51;;;;;;;2.73;2.13;;;;;;;24.75;41.26;96856.19;5050466;28;20574;-73
2022/06/07 12:19:28;;;;;;;2.80;1.93;;;;;;;25.06;41.04;96843.94;5031347;28;20217;-74
2022/06/07 12:22:05;;;;;;;2.07;1.90;;;;;;;25.36;40.20;96843.31;5050751;28;20213;-74
2022/06/07 12:24:47;;;;;;;2.73;2.10;;;;;;;25.12;41.79;96838.03;5031740;28;20201;-73
2022/06/07 12:27:32;;;;;;;1.83;1.73;;;;;;;24.96;39.16;96841.47;5008677;28;20649;-72
2022/06/07 12:30:19;;;;;;;3.23;1.97;;;;;;;24.85;40.50;96854.22;5010602;28;20192;-74
2022/06/07 12:32:54;;;;;;;3.67;2.30;;;;;;;24.83;40.85;96833.16;5007493;28;20188;-73
2022/06/07 12:35:24;;;;;;;5.33;4.20;;;;;;;24.96;40.86;96840.63;5008961;28;20190;-73